Time;durP1;ratioP1;P1;durP2;ratioP2;P2;SDS_P1;SDS_P2;PMS_P1;PMS_P2;Temp;Humidity;BMP_temperature;BMP_pressure;BME280_temperature;BME280_humidity;BME280_pressure;Samples;Min_cycle;Max_cycle;Signal;HPM_P1;HPM_P2
2023/03/19 00:00:42;;;;;;;0.20;0.20;;;;;;;8.84;95.98;100542.91;5054686;28;20053;-62
2023/03/19 00:03:12;;;;;;;0.20;0.20;;;;;;;8.88;96.89;100541.03;5055781;28;20083;-62
2023/03/19 00:05:40;;;;;;;0.20;0.20;;;;;;;8.96;96.06;100541.31;5055727;28;20102;-62
2023/03/19 00:08:08;;;;;;;0.20;0.20;;;;;;;8.90;96.16;100541.53;5055457;28;20025;-62
2023/03/19 00:10:38;;;;;;;0.20;0.20;;;;;;;8.81;96.71;100537.22;5055701;28;20032;-62
2023/03/19 00:13:03;;;;;;;0.20;0.20;;;;;;;8.78;97.06;100535.94;5055338;28;20021;-64
2023/03/19 00:15:34;;;;;;;0.30;0.30;;;;;;;8.78;97.84;100543.44;5055912;28;20082;-62
2023/03/19 00:18:04;;;;;;;0.30;0.30;;;;;;;8.80;97.90;100544.75;5055689;28;20095;-62
2023/03/19 00:20:33;;;;;;;0.20;0.20;;;;;;;8.80;98.17;100535.59;5055194;28;20032;-62
2023/03/19 00:23:04;;;;;;;0.20;0.20;;;;;;;8.80;96.88;100544.75;5055410;28;20024;-62
2023/03/19 00:25:32;;;;;;;0.20;0.20;;;;;;;8.81;97.72;100540.00;5055474;28;20033;-63
2023/03/19 00:28:02;;;;;;;0.20;0.20;;;;;;;8.70;97.53;100533.25;5054862;28;20033;-63
2023/03/19 00:30:33;;;;;;;0.20;0.20;;;;;;;8.84;97.65;100529.03;5055115;28;20128;-62
2023/03/19 00:33:01;;;;;;;0.20;0.20;;;;;;;8.72;96.73;100526.19;5055303;28;20082;-62
2023/03/19 00:35:28;;;;;;;0.20;0.20;;;;;;;8.82;97.23;100530.50;5055016;28;20025;-61
2023/03/19 00:37:54;;;;;;;0.20;0.20;;;;;;;8.79;97.11;100528.41;5055312;28;20040;-63
2023/03/19 00:40:22;;;;;;;0.30;0.30;;;;;;;8.66;97.82;100533.13;5057518;28;20035;-62
2023/03/19 00:42:49;;;;;;;0.20;0.20;;;;;;;8.70;97.64;100525.75;5055345;28;20090;-62
2023/03/19 00:45:17;;;;;;;0.20;0.20;;;;;;;8.65;97.67;100525.97;5054768;28;20025;-62
2023/03/19 00:47:45;;;;;;;0.20;0.20;;;;;;;8.58;98.12;100520.16;5054794;28;20495;-62
2023/03/19 00:50:13;;;;;;;0.22;0.22;;;;;;;8.58;98.35;100520.16;5054980;28;20033;-62
2023/03/19 00:52:46;;;;;;;0.20;0.20;;;;;;;8.63;98.18;100518.00;5055224;28;20022;-62
2023/03/19 00:55:16;;;;;;;0.30;0.30;;;;;;;8.60;97.65;100515.06;5054403;28;20060;-62
2023/03/19 00:57:44;;;;;;;0.30;0.30;;;;;;;8.64;98.00;100513.25;5054571;28;20029;-61
2023/03/19 01:00:11;;;;;;;0.30;0.30;;;;;;;8.64;97.86;100502.16;5054826;28;20057;-62
2023/03/19 01:02:36;;;;;;;0.20;0.20;;;;;;;8.71;97.65;100502.41;5057680;28;20021;-63
2023/03/19 01:05:02;;;;;;;0.30;0.30;;;;;;;8.62;97.92;100498.88;5057653;28;20029;-63
2023/03/19 01:07:30;;;;;;;0.30;0.30;;;;;;;8.59;98.14;100494.03;5054508;28;20391;-62
2023/03/19 01:09:58;;;;;;;0.20;0.20;;;;;;;8.57;98.60;100499.09;5054111;28;20044;-62
2023/03/19 01:12:24;;;;;;;0.20;0.20;;;;;;;8.55;98.92;100487.56;5055452;28;20075;-63
2023/03/19 01:14:53;;;;;;;0.30;0.30;;;;;;;8.53;99.87;100496.22;5055481;28;20120;-62
2023/03/19 01:17:21;;;;;;;0.20;0.20;;;;;;;8.58;100.00;100487.69;5054165;28;20025;-63
2023/03/19 01:19:48;;;;;;;0.20;0.20;;;;;;;8.52;99.60;100488.22;5054235;28;20033;-62
2023/03/19 01:22:15;;;;;;;0.30;0.30;;;;;;;8.43;100.00;100485.56;5054634;28;20024;-62
2023/03/19 01:24:41;;;;;;;0.30;0.30;;;;;;;8.36;100.00;100488.88;5054052;28;20037;-63
2023/03/19 01:27:07;;;;;;;0.20;0.20;;;;;;;8.31;100.00;100493.78;5054006;28;20063;-62
2023/03/19 01:29:33;;;;;;;0.20;0.20;;;;;;;8.48;99.83;100485.34;5053898;28;20124;-62
2023/03/19 01:32:01;;;;;;;0.30;0.30;;;;;;;8.42;100.00;100491.44;5054833;28;20037;-62
2023/03/19 01:34:27;;;;;;;0.30;0.30;;;;;;;8.33;100.00;100503.38;5053635;28;20106;-62
2023/03/19 01:36:55;;;;;;;0.20;0.20;;;;;;;8.29;100.00;100494.13;5054435;28;20472;-62
2023/03/19 01:39:22;;;;;;;0.30;0.30;;;;;;;8.35;100.00;100495.53;5054095;28;20479;-63
2023/03/19 01:41:48;;;;;;;0.20;0.20;;;;;;;8.42;100.00;100497.00;5053824;28;20025;-66
2023/03/19 01:44:30;;;;;;;0.20;0.20;;;;;;;8.35;99.51;100484.44;5059143;28;20044;-62
2023/03/19 01:46:57;;;;;;;0.30;0.30;;;;;;;8.31;100.00;100496.53;5055657;28;20498;-71
2023/03/19 01:49:25;;;;;;;0.30;0.30;;;;;;;8.19;100.00;100482.63;5058391;28;20456;-63
2023/03/19 01:51:52;;;;;;;0.20;0.20;;;;;;;8.16;100.00;100486.91;5056474;28;20025;-64
2023/03/19 01:54:23;;;;;;;0.20;0.20;;;;;;;8.13;100.00;100495.88;5057145;28;20032;-65
2023/03/19 01:56:54;;;;;;;0.20;0.20;;;;;;;8.24;100.00;100490.75;5056234;28;20094;-64
2023/03/19 01:59:27;;;;;;;0.20;0.20;;;;;;;8.16;100.00;100492.44;5064174;28;20055;-63
2023/03/19 02:02:05;;;;;;;0.20;0.20;;;;;;;8.19;100.00;100505.63;5076318;28;20024;-63
2023/03/19 02:04:35;;;;;;;0.30;0.30;;;;;;;8.12;100.00;100477.66;5075861;28;20036;-73
2023/03/19 02:07:05;;;;;;;0.20;0.20;;;;;;;8.20;100.00;100487.84;5077035;28;20029;-62
2023/03/19 02:09:31;;;;;;;0.30;0.30;;;;;;;8.23;100.00;100484.41;5076282;28;20032;-68
2023/03/19 02:12:01;;;;;;;0.20;0.20;;;;;;;8.27;100.00;100481.75;5075978;28;20024;-62
2023/03/19 02:14:29;;;;;;;0.20;0.20;;;;;;;8.32;100.00;100482.38;5075031;28;20451;-64
2023/03/19 02:16:57;;;;;;;0.20;0.20;;;;;;;8.36;100.00;100482.50;5076254;28;20066;-64
2023/03/19 02:20:12;;;;;;;0.20;0.20;;;;;;;8.31;100.00;100477.13;5076599;28;20029;-64
2023/03/19 02:23:07;;;;;;;;;;;;;;;8.34;100.00;100479.25;5054893;28;20032;-63
2023/03/19 02:25:44;;;;;;;0.20;0.20;;;;;;;8.36;100.00;100486.13;5067161;28;19913;-63
2023/03/19 02:28:17;;;;;;;0.20;0.20;;;;;;;8.30;99.71;100487.41;5077258;28;20032;-66
2023/03/19 02:30:43;;;;;;;0.30;0.30;;;;;;;8.23;99.04;100480.81;5076277;28;20082;-63
2023/03/19 02:33:14;;;;;;;0.22;0.22;;;;;;;8.18;99.72;100487.38;5075838;28;20119;-64
2023/03/19 02:35:41;;;;;;;0.20;0.20;;;;;;;8.17;99.83;100485.75;5076433;28;20482;-63
2023/03/19 02:38:09;;;;;;;0.20;0.20;;;;;;;8.12;100.00;100480.41;5076059;28;20094;-70
2023/03/19 02:40:42;;;;;;;0.20;0.20;;;;;;;8.08;100.00;100485.00;5075383;28;20387;-62
2023/03/19 02:43:12;;;;;;;0.20;0.20;;;;;;;8.05;100.00;100485.69;5073498;28;20025;-62
2023/03/19 02:45:38;;;;;;;0.20;0.20;;;;;;;8.05;100.00;100480.16;5074386;28;20025;-63
2023/03/19 02:48:04;;;;;;;0.20;0.20;;;;;;;8.03;100.00;100485.22;5073611;28;20394;-65
2023/03/19 02:50:29;;;;;;;0.20;0.20;;;;;;;8.14;100.00;100495.53;5073349;28;20039;-62
2023/03/19 02:52:57;;;;;;;0.30;0.30;;;;;;;8.12;100.00;100491.50;5073151;28;20032;-62
2023/03/19 02:55:26;;;;;;;0.30;0.30;;;;;;;8.16;100.00;100500.78;5072892;28;20033;-62
2023/03/19 02:57:53;;;;;;;0.28;0.28;;;;;;;8.11;100.00;100495.44;5072655;28;20028;-62
2023/03/19 03:00:25;;;;;;;0.20;0.20;;;;;;;8.05;100.00;100508.69;5055838;28;20052;-62
2023/03/19 03:02:50;;;;;;;0.22;0.22;;;;;;;8.08;100.00;100502.44;5052949;28;20483;-64
2023/03/19 03:05:16;;;;;;;0.20;0.20;;;;;;;8.19;100.00;100508.38;5052788;28;20123;-62
2023/03/19 03:07:46;;;;;;;0.20;0.20;;;;;;;8.13;100.00;100512.53;5053605;28;20060;-62
2023/03/19 03:10:17;;;;;;;0.30;0.30;;;;;;;8.17;100.00;100519.00;5054373;28;20058;-62
2023/03/19 03:12:43;;;;;;;0.20;0.20;;;;;;;8.07;100.00;100519.41;5053325;28;20036;-63
2023/03/19 03:15:14;;;;;;;0.20;0.20;;;;;;;8.14;100.00;100522.44;5053425;28;20036;-62
2023/03/19 03:17:41;;;;;;;0.20;0.20;;;;;;;8.17;100.00;100516.25;5053234;28;20037;-62
2023/03/19 03:20:09;;;;;;;0.30;0.30;;;;;;;7.96;100.00;100519.00;5052396;28;20029;-63
2023/03/19 03:22:35;;;;;;;0.30;0.30;;;;;;;7.93;100.00;100518.88;5052183;28;20589;-62
2023/03/19 03:25:08;;;;;;;0.30;0.30;;;;;;;7.80;100.00;100512.44;5053268;28;20131;-62
2023/03/19 03:27:39;;;;;;;0.20;0.20;;;;;;;7.77;100.00;100511.13;5056859;28;20029;-62
2023/03/19 03:30:09;;;;;;;0.20;0.20;;;;;;;7.77;100.00;100502.81;5056565;28;20108;-62
2023/03/19 03:32:36;;;;;;;0.20;0.20;;;;;;;7.79;100.00;100505.28;5056704;28;20100;-62
2023/03/19 03:35:07;;;;;;;0.30;0.30;;;;;;;7.81;100.00;100506.56;5056586;28;20442;-63
2023/03/19 03:37:36;;;;;;;0.30;0.30;;;;;;;7.85;100.00;100506.72;5057057;28;20033;-61
2023/03/19 03:40:07;;;;;;;0.20;0.20;;;;;;;7.76;100.00;100492.91;5056077;28;20471;-62
2023/03/19 03:42:37;;;;;;;0.30;0.30;;;;;;;7.76;100.00;100490.13;5057418;28;20021;-62
2023/03/19 03:45:03;;;;;;;0.30;0.30;;;;;;;7.78;100.00;100492.59;5055986;28;20031;-62
2023/03/19 03:47:31;;;;;;;0.20;0.20;;;;;;;7.78;100.00;100495.34;5056626;28;20029;-62
2023/03/19 03:50:02;;;;;;;0.20;0.20;;;;;;;7.77;100.00;100497.28;5055789;28;20036;-62
2023/03/19 03:52:32;;;;;;;0.30;0.30;;;;;;;7.71;100.00;100501.41;5055761;28;20028;-62
2023/03/19 03:55:00;;;;;;;0.20;0.20;;;;;;;7.74;100.00;100497.97;5056156;28;20095;-62
2023/03/19 03:57:26;;;;;;;0.30;0.30;;;;;;;7.77;100.00;100499.25;5058067;28;20549;-67
2023/03/19 03:59:52;;;;;;;0.20;0.20;;;;;;;7.67;100.00;100486.63;5058988;28;20045;-66
2023/03/19 04:02:20;;;;;;;0.30;0.30;;;;;;;7.73;100.00;100510.22;5057349;28;20025;-62
2023/03/19 04:04:48;;;;;;;0.20;0.20;;;;;;;7.77;100.00;100502.81;5055600;28;20095;-62
2023/03/19 04:07:18;;;;;;;0.30;0.30;;;;;;;7.80;100.00;100507.72;5055534;28;20029;-62
2023/03/19 04:09:49;;;;;;;0.20;0.20;;;;;;;7.84;100.00;100508.66;5055441;28;20029;-62
2023/03/19 04:12:18;;;;;;;0.30;0.30;;;;;;;7.81;100.00;100502.97;5055955;28;20363;-62
2023/03/19 04:14:43;;;;;;;0.22;0.22;;;;;;;7.74;100.00;100503.53;5056428;28;20494;-63
2023/03/19 04:17:14;;;;;;;0.20;0.20;;;;;;;7.86;100.00;100506.38;5055359;28;20029;-62
2023/03/19 04:19:42;;;;;;;0.30;0.30;;;;;;;7.74;100.00;100499.94;5055848;28;20060;-62
2023/03/19 04:22:10;;;;;;;0.20;0.20;;;;;;;7.77;100.00;100502.81;5056005;28;20104;-62
2023/03/19 04:24:36;;;;;;;0.22;0.22;;;;;;;7.87;100.00;100510.75;5055484;28;20051;-62
2023/03/19 04:27:04;;;;;;;0.20;0.20;;;;;;;7.80;100.00;100507.72;5055682;28;20475;-62
2023/03/19 04:29:32;;;;;;;0.30;0.30;;;;;;;7.82;100.00;100510.94;5055136;28;20033;-62
2023/03/19 04:32:00;;;;;;;0.20;0.20;;;;;;;7.86;100.00;100511.09;5055367;28;20082;-62
2023/03/19 04:34:31;;;;;;;0.25;0.25;;;;;;;7.89;100.00;100518.75;5055368;28;20051;-62
2023/03/19 04:36:59;;;;;;;0.30;0.30;;;;;;;7.98;100.00;100522.25;5055071;28;20494;-63
2023/03/19 04:39:27;;;;;;;0.30;0.30;;;;;;;7.99;100.00;100528.59;5054926;28;20033;-62
2023/03/19 04:41:56;;;;;;;0.30;0.30;;;;;;;8.02;100.00;100520.44;5055363;28;20029;-63
2023/03/19 04:44:24;;;;;;;0.20;0.20;;;;;;;7.95;100.00;100522.13;5055061;28;20033;-62
2023/03/19 04:46:58;;;;;;;0.20;0.20;;;;;;;7.95;100.00;100522.13;5055366;28;20025;-62
2023/03/19 04:49:24;;;;;;;;;;;;;;;7.90;100.00;100516.78;5055397;28;20029;-62
2023/03/19 04:51:52;;;;;;;0.20;0.20;;;;;;;7.97;100.00;100519.81;5071392;28;19913;-62
2023/03/19 04:54:20;;;;;;;0.20;0.20;;;;;;;7.94;100.00;100514.97;5054577;28;20052;-62
2023/03/19 04:56:45;;;;;;;0.20;0.20;;;;;;;8.07;100.00;100522.19;5054561;28;20037;-62
2023/03/19 04:59:13;;;;;;;0.30;0.30;;;;;;;8.03;100.00;100521.25;5054573;28;20045;-63
2023/03/19 05:01:42;;;;;;;0.30;0.30;;;;;;;8.01;100.00;100523.53;5055363;28;20025;-63
2023/03/19 05:04:07;;;;;;;0.20;0.20;;;;;;;8.03;100.00;100526.78;5055667;28;20039;-63
2023/03/19 05:06:36;;;;;;;0.20;0.20;;;;;;;8.04;100.00;100520.09;5054414;28;20471;-63
2023/03/19 05:09:08;;;;;;;0.30;0.30;;;;;;;8.05;100.00;100524.50;5054620;28;20028;-62
2023/03/19 05:11:33;;;;;;;0.20;0.20;;;;;;;8.13;100.00;100520.84;5054274;28;20115;-62
2023/03/19 05:14:01;;;;;;;0.30;0.30;;;;;;;8.21;100.00;100525.50;5054357;28;20053;-62
2023/03/19 05:16:33;;;;;;;0.30;0.30;;;;;;;8.23;100.00;100525.97;5054235;28;20025;-62
2023/03/19 05:19:01;;;;;;;0.20;0.20;;;;;;;8.44;100.00;100527.94;5054525;28;20033;-62
2023/03/19 05:21:29;;;;;;;0.30;0.30;;;;;;;8.53;100.00;100523.16;5054088;28;20036;-62
2023/03/19 05:23:59;;;;;;;0.20;0.20;;;;;;;8.66;100.00;100520.06;5054602;28;20029;-62
2023/03/19 05:26:29;;;;;;;0.20;0.20;;;;;;;8.94;100.00;100530.53;5053952;28;20029;-63
2023/03/19 05:29:00;;;;;;;0.20;0.20;;;;;;;9.19;100.00;100534.19;5053997;28;20033;-63
2023/03/19 05:31:25;;;;;;;0.20;0.20;;;;;;;9.53;99.16;100537.66;5053916;28;20032;-63
2023/03/19 05:33:53;;;;;;;0.20;0.20;;;;;;;9.82;96.19;100534.66;5053864;28;20029;-63
2023/03/19 05:36:21;;;;;;;0.30;0.30;;;;;;;10.14;94.28;100534.81;5054394;28;20033;-63
2023/03/19 05:38:50;;;;;;;0.28;0.28;;;;;;;10.42;93.29;100535.69;5053750;28;20033;-63
2023/03/19 05:41:17;;;;;;;0.20;0.20;;;;;;;10.81;91.85;100533.19;5053776;28;20029;-62
2023/03/19 05:43:45;;;;;;;0.20;0.20;;;;;;;11.28;89.40;100538.81;5053952;28;20029;-62
2023/03/19 05:46:12;;;;;;;0.20;0.20;;;;;;;11.76;86.36;100542.38;5053748;28;20029;-63
2023/03/19 05:48:45;;;;;;;0.20;0.20;;;;;;;12.21;82.52;100545.84;5053839;28;20509;-63
2023/03/19 05:51:11;;;;;;;0.30;0.30;;;;;;;12.74;79.47;100555.31;5053696;28;20037;-63
2023/03/19 05:53:39;;;;;;;0.20;0.20;;;;;;;13.10;75.77;100553.19;5054084;28;20036;-64
2023/03/19 05:56:05;;;;;;;0.20;0.20;;;;;;;13.57;73.95;100561.25;5054638;28;20024;-63
2023/03/19 05:58:31;;;;;;;0.20;0.20;;;;;;;14.00;71.05;100561.94;5057102;28;20031;-63
2023/03/19 06:00:58;;;;;;;0.20;0.20;;;;;;;14.48;69.52;100567.00;5076986;28;20118;-63
2023/03/19 06:03:26;;;;;;;0.20;0.20;;;;;;;14.79;67.59;100568.59;5076681;28;20050;-63
2023/03/19 06:05:52;;;;;;;0.20;0.20;;;;;;;15.23;65.96;100579.09;5076907;28;20092;-63
2023/03/19 06:08:20;;;;;;;0.30;0.30;;;;;;;15.65;63.29;100582.31;5094752;28;20035;-63
2023/03/19 06:10:46;;;;;;;0.20;0.20;;;;;;;15.99;61.48;100579.41;5094708;28;20073;-63
2023/03/19 06:13:19;;;;;;;0.30;0.30;;;;;;;16.06;59.02;100589.88;5076112;28;20078;-63
2023/03/19 06:15:46;;;;;;;0.20;0.20;;;;;;;16.13;59.46;100590.72;5093238;28;20058;-62
2023/03/19 06:18:12;;;;;;;0.20;0.20;;;;;;;16.23;59.93;100598.41;5076099;28;20311;-63
2023/03/19 06:20:45;;;;;;;0.20;0.20;;;;;;;16.13;58.03;100592.72;5076277;28;20028;-62
2023/03/19 06:23:14;;;;;;;0.20;0.20;;;;;;;16.77;56.90;100595.91;5076350;28;20082;-63
2023/03/19 06:25:39;;;;;;;0.20;0.20;;;;;;;17.06;53.82;100602.44;5076108;28;20043;-63
2023/03/19 06:28:08;;;;;;;0.20;0.20;;;;;;;17.20;56.96;100602.47;5076276;28;20028;-63
2023/03/19 06:30:38;;;;;;;0.20;0.20;;;;;;;17.18;52.42;100599.25;5076568;28;20043;-62
2023/03/19 06:33:04;;;;;;;0.20;0.20;;;;;;;17.19;51.50;100600.84;5092831;28;20028;-63
2023/03/19 06:35:32;;;;;;;0.20;0.20;;;;;;;17.66;53.74;100600.94;5076052;28;20042;-63
2023/03/19 06:38:02;;;;;;;0.20;0.20;;;;;;;17.56;52.54;100599.72;5076139;28;20028;-64
2023/03/19 06:40:30;;;;;;;0.20;0.20;;;;;;;17.40;52.62;100604.94;5075904;28;20064;-62
2023/03/19 06:43:00;;;;;;;0.20;0.20;;;;;;;17.61;52.17;100610.59;5076049;28;20016;-63
2023/03/19 06:45:28;;;;;;;0.20;0.20;;;;;;;17.67;52.45;100611.78;5076163;28;20093;-63
2023/03/19 06:47:56;;;;;;;0.20;0.20;;;;;;;17.89;52.10;100615.44;5076083;28;20081;-62
2023/03/19 06:50:27;;;;;;;0.20;0.20;;;;;;;17.28;50.50;100608.94;5075698;28;20097;-63
2023/03/19 06:53:01;;;;;;;0.20;0.20;;;;;;;17.39;53.02;100614.56;5075933;28;20024;-63
2023/03/19 06:55:29;;;;;;;0.20;0.20;;;;;;;17.66;52.73;100624.25;5075422;28;20036;-63
2023/03/19 06:57:58;;;;;;;0.20;0.20;;;;;;;17.43;52.63;100621.03;5075636;28;20027;-63
2023/03/19 07:00:30;;;;;;;0.20;0.20;;;;;;;17.12;54.36;100617.72;5075185;28;20075;-62
2023/03/19 07:02:55;;;;;;;0.20;0.20;;;;;;;17.67;53.49;100622.25;5075588;28;20026;-63
2023/03/19 07:05:21;;;;;;;0.20;0.20;;;;;;;17.01;54.08;100623.31;5075559;28;20028;-64
2023/03/19 07:07:49;;;;;;;0.20;0.20;;;;;;;17.17;53.34;100622.97;5075546;28;20378;-63
2023/03/19 07:10:20;;;;;;;0.20;0.20;;;;;;;17.43;53.70;100615.38;5075408;28;20030;-63
2023/03/19 07:12:49;;;;;;;0.20;0.20;;;;;;;18.06;51.66;100628.72;5093639;28;20024;-63
2023/03/19 07:15:16;;;;;;;0.20;0.20;;;;;;;18.00;52.49;100632.31;5092364;28;20161;-63
2023/03/19 07:17:44;;;;;;;0.20;0.20;;;;;;;17.67;52.39;100628.66;5075794;28;20066;-64
2023/03/19 07:20:11;;;;;;;0.20;0.20;;;;;;;18.65;51.21;100638.69;5075534;28;20093;-63
2023/03/19 07:22:42;;;;;;;0.20;0.20;;;;;;;18.32;50.54;100637.94;5075263;28;20020;-64
2023/03/19 07:25:07;;;;;;;0.20;0.20;;;;;;;18.48;51.71;100641.16;5092242;28;20459;-62
2023/03/19 07:27:36;;;;;;;0.20;0.20;;;;;;;18.61;50.92;100641.50;5075317;28;20074;-63
2023/03/19 07:30:03;;;;;;;0.20;0.20;;;;;;;18.37;51.60;100647.97;5076224;28;20089;-62
2023/03/19 07:32:31;;;;;;;0.20;0.20;;;;;;;17.61;54.08;100644.34;5075066;28;20028;-63
2023/03/19 07:34:59;;;;;;;0.20;0.20;;;;;;;18.04;52.94;100635.94;5075347;28;20386;-62
2023/03/19 07:37:24;;;;;;;0.20;0.20;;;;;;;18.06;53.31;100647.63;5075548;28;20020;-63
2023/03/19 07:39:56;;;;;;;0.20;0.20;;;;;;;18.70;52.68;100646.75;5075817;28;20375;-64
2023/03/19 07:42:23;;;;;;;0.20;0.20;;;;;;;18.35;51.98;100645.59;5075486;28;20054;-63
2023/03/19 07:44:53;;;;;;;0.25;0.25;;;;;;;18.42;52.08;100654.00;5075248;28;20032;-64
2023/03/19 07:47:24;;;;;;;0.20;0.20;;;;;;;18.20;51.60;100649.63;5075499;28;20046;-64
2023/03/19 07:49:55;;;;;;;0.20;0.20;;;;;;;18.98;51.02;100657.13;5093046;28;20035;-64
2023/03/19 07:52:21;;;;;;;0.20;0.20;;;;;;;19.83;48.41;100642.53;5075168;28;20043;-64
2023/03/19 07:54:49;;;;;;;0.20;0.20;;;;;;;20.37;46.60;100662.66;5075215;28;20126;-63
2023/03/19 07:57:18;;;;;;;0.20;0.20;;;;;;;20.18;46.13;100653.94;5075684;28;20532;-61
2023/03/19 07:59:46;;;;;;;0.20;0.20;;;;;;;20.03;46.02;100658.94;5059996;28;20049;-64
2023/03/19 08:02:15;;;;;;;0.20;0.20;;;;;;;20.38;45.05;100663.44;5052400;28;20021;-62
2023/03/19 08:04:46;;;;;;;0.20;0.20;;;;;;;20.78;45.28;100664.69;5052224;28;20041;-64
2023/03/19 08:07:14;;;;;;;0.20;0.20;;;;;;;20.90;44.46;100655.66;5052048;28;20035;-65
2023/03/19 08:09:42;;;;;;;0.20;0.20;;;;;;;20.03;45.89;100658.94;5052117;28;20128;-64
2023/03/19 08:12:10;;;;;;;0.20;0.20;;;;;;;18.87;48.20;100664.81;5052508;28;20025;-64
2023/03/19 08:14:36;;;;;;;0.20;0.20;;;;;;;19.14;48.09;100663.09;5055788;28;20087;-64
2023/03/19 08:17:02;;;;;;;0.20;0.20;;;;;;;19.23;48.70;100666.28;5055665;28;20474;-64
2023/03/19 08:19:32;;;;;;;0.20;0.20;;;;;;;18.47;49.78;100666.88;5055156;28;20060;-64
2023/03/19 08:22:02;;;;;;;0.20;0.20;;;;;;;18.59;50.86;100664.47;5056321;28;20028;-63
2023/03/19 08:24:28;;;;;;;0.20;0.20;;;;;;;19.03;49.46;100667.97;5055713;28;20037;-63
2023/03/19 08:26:55;;;;;;;0.20;0.20;;;;;;;19.77;48.14;100669.63;5054967;28;20528;-63
2023/03/19 08:29:21;;;;;;;0.20;0.20;;;;;;;20.45;45.76;100679.53;5054920;28;20040;-64
2023/03/19 08:31:47;;;;;;;0.20;0.20;;;;;;;20.71;45.71;100681.72;5054864;28;20033;-63
2023/03/19 08:34:15;;;;;;;0.20;0.20;;;;;;;21.02;44.60;100678.97;5054884;28;20048;-63
2023/03/19 08:36:41;;;;;;;0.10;0.10;;;;;;;21.35;43.21;100678.13;5054625;28;20499;-64
2023/03/19 08:39:09;;;;;;;0.20;0.20;;;;;;;20.98;43.20;100678.19;5054923;28;20036;-63
2023/03/19 08:41:39;;;;;;;0.20;0.20;;;;;;;21.37;43.98;100684.19;5054911;28;20036;-63
2023/03/19 08:44:10;;;;;;;0.20;0.20;;;;;;;21.90;42.67;100679.78;5054569;28;20120;-64
2023/03/19 08:46:41;;;;;;;0.20;0.20;;;;;;;21.92;42.22;100685.81;5054906;28;20035;-64
2023/03/19 08:49:07;;;;;;;0.20;0.20;;;;;;;22.36;40.83;100674.59;5055109;28;20032;-63
2023/03/19 08:51:35;;;;;;;0.20;0.20;;;;;;;22.38;41.02;100684.28;5054544;28;20476;-63
2023/03/19 08:54:04;;;;;;;0.10;0.10;;;;;;;22.33;41.20;100684.78;5054543;28;20044;-64
2023/03/19 08:56:32;;;;;;;0.20;0.20;;;;;;;22.36;40.92;100686.72;5054379;28;20029;-64
2023/03/19 08:59:00;;;;;;;0.20;0.20;;;;;;;20.86;43.16;100676.72;5054786;28;20049;-64
2023/03/19 09:01:26;;;;;;;0.10;0.10;;;;;;;20.11;45.27;100671.78;5054381;28;20021;-63
2023/03/19 09:03:54;;;;;;;0.20;0.20;;;;;;;19.67;46.37;100681.78;5054206;28;20029;-64
2023/03/19 09:06:22;;;;;;;0.20;0.20;;;;;;;19.00;49.11;100682.88;5054172;28;20039;-63
2023/03/19 09:08:53;;;;;;;0.20;0.20;;;;;;;19.26;48.14;100668.28;5054689;28;20491;-63
2023/03/19 09:11:23;;;;;;;0.20;0.20;;;;;;;19.55;47.96;100679.41;5054262;28;20475;-63
2023/03/19 09:13:49;;;;;;;0.20;0.20;;;;;;;20.27;46.17;100677.69;5053951;28;20029;-65
2023/03/19 09:16:20;;;;;;;0.20;0.20;;;;;;;21.13;44.49;100682.44;5053702;28;20119;-63
2023/03/19 09:18:48;;;;;;;0.20;0.20;;;;;;;21.65;42.93;100671.66;5053948;28;20468;-63
2023/03/19 09:21:18;;;;;;;0.20;0.20;;;;;;;21.76;42.40;100685.66;5053960;28;20023;-64
2023/03/19 09:23:44;;;;;;;0.20;0.20;;;;;;;22.08;41.56;100684.34;5054437;28;20029;-63
2023/03/19 09:26:09;;;;;;;0.10;0.10;;;;;;;22.13;41.48;100681.06;5053222;28;20352;-63
2023/03/19 09:28:38;;;;;;;0.20;0.20;;;;;;;22.15;41.08;100687.09;5053271;28;20032;-63
2023/03/19 09:31:08;;;;;;;0.20;0.20;;;;;;;22.31;40.58;100683.59;5053714;28;20098;-63
2023/03/19 09:33:36;;;;;;;0.20;0.20;;;;;;;21.61;41.10;100681.44;5054240;28;20025;-64
2023/03/19 09:36:03;;;;;;;0.20;0.20;;;;;;;21.60;41.81;100674.97;5053636;28;20029;-64
2023/03/19 09:38:30;;;;;;;0.13;0.13;;;;;;;20.77;42.82;100684.88;5053388;28;20033;-63
2023/03/19 09:41:19;;;;;;;0.20;0.20;;;;;;;21.03;43.46;100694.69;5053347;28;20480;-63
2023/03/19 09:44:01;;;;;;;0.20;0.20;;;;;;;20.65;44.23;100689.84;5053173;28;20029;-61
2023/03/19 09:47:02;;;;;;;0.15;0.15;;;;;;;20.62;43.77;100685.06;5053816;28;20038;-62
2023/03/19 09:49:33;;;;;;;0.13;0.13;;;;;;;20.85;43.83;100684.41;5053216;28;20028;-62
2023/03/19 09:52:24;;;;;;;0.10;0.10;;;;;;;21.17;42.96;100683.22;5053165;28;20459;-63
2023/03/19 09:54:51;;;;;;;0.17;0.17;;;;;;;21.15;42.38;100689.31;5053053;28;20021;-63
2023/03/19 09:57:20;;;;;;;0.15;0.15;;;;;;;20.75;43.73;100688.16;5053249;28;20112;-62
2023/03/19 09:59:48;;;;;;;0.10;0.10;;;;;;;21.03;43.30;100678.53;5077273;28;20047;-63
2023/03/19 10:02:32;;;;;;;0.20;0.20;;;;;;;21.56;42.04;100684.75;5076076;28;20028;-62
2023/03/19 10:05:10;;;;;;;0.20;0.20;;;;;;;21.52;41.76;100684.81;5076092;28;20371;-62
2023/03/19 10:07:53;;;;;;;0.10;0.10;;;;;;;20.49;42.81;100680.34;5093008;28;20035;-61
2023/03/19 10:10:48;;;;;;;0.10;0.10;;;;;;;20.61;43.51;100682.63;5076327;28;20031;-62
2023/03/19 10:13:16;;;;;;;0.10;0.10;;;;;;;20.57;43.48;100676.22;5076791;28;20094;-63
2023/03/19 10:15:43;;;;;;;0.10;0.10;;;;;;;20.77;43.30;100671.56;5076240;28;20028;-62
2023/03/19 10:18:24;;;;;;;0.20;0.20;;;;;;;20.71;44.26;100666.78;5092953;28;20060;-63
2023/03/19 10:21:08;;;;;;;0.10;0.10;;;;;;;21.20;42.03;100668.22;5094515;28;20057;-62
2023/03/19 10:23:49;;;;;;;0.10;0.10;;;;;;;21.60;42.13;100665.69;5092790;28;20028;-63
2023/03/19 10:26:20;;;;;;;0.20;0.20;;;;;;;20.43;43.50;100677.13;5075940;28;20042;-62
2023/03/19 10:29:02;;;;;;;0.20;0.20;;;;;;;20.85;43.58;100670.25;5094058;28;20036;-62
2023/03/19 10:31:39;;;;;;;0.10;0.10;;;;;;;20.84;43.63;100668.66;5093386;28;20119;-62
2023/03/19 10:34:30;;;;;;;0.10;0.10;;;;;;;20.72;43.32;100665.56;5076861;28;20089;-61
2023/03/19 10:37:12;;;;;;;0.20;0.20;;;;;;;20.54;44.63;100660.09;5075370;28;20070;-62
2023/03/19 10:39:40;;;;;;;0.20;0.20;;;;;;;20.31;44.23;100661.50;5093131;28;20035;-63
2023/03/19 10:42:36;;;;;;;0.20;0.20;;;;;;;20.86;43.68;100660.53;5092583;28;20085;-63
2023/03/19 10:45:25;;;;;;;0.10;0.10;;;;;;;21.37;41.01;100644.56;5093384;28;20028;-63
2023/03/19 10:47:55;;;;;;;0.20;0.20;;;;;;;21.58;41.67;100665.31;5075973;28;20035;-62
2023/03/19 10:50:36;;;;;;;0.20;0.20;;;;;;;20.85;44.05;100661.78;5094379;28;20055;-63
2023/03/19 10:53:05;;;;;;;0.20;0.20;;;;;;;20.90;42.27;100661.31;5075448;28;20467;-62
2023/03/19 10:55:31;;;;;;;0.15;0.15;;;;;;;20.57;42.91;100659.28;5075518;28;20039;-63
2023/03/19 10:58:03;;;;;;;0.20;0.20;;;;;;;20.67;42.68;100659.16;5075409;28;20472;-61
2023/03/19 11:00:34;;;;;;;0.20;0.20;;;;;;;20.55;43.39;100651.19;5053972;28;20051;-62
2023/03/19 11:03:03;;;;;;;0.20;0.20;;;;;;;20.32;42.99;100642.53;5052165;28;20029;-62
2023/03/19 11:05:32;;;;;;;0.20;0.20;;;;;;;20.23;43.53;100657.13;5052214;28;20025;-62
2023/03/19 11:08:14;;;;;;;0.20;0.20;;;;;;;20.82;43.37;100644.84;5052045;28;20021;-62
2023/03/19 11:10:45;;;;;;;0.17;0.17;;;;;;;21.11;42.03;100643.28;5051737;28;20123;-62
2023/03/19 11:13:23;;;;;;;0.20;0.20;;;;;;;20.96;42.40;100641.03;5051540;28;20040;-63
2023/03/19 11:15:56;;;;;;;0.10;0.10;;;;;;;21.11;42.70;100642.47;5051783;28;20029;-61
2023/03/19 11:18:37;;;;;;;0.20;0.20;;;;;;;20.55;43.24;100631.41;5052231;28;20389;-62
2023/03/19 11:21:20;;;;;;;0.20;0.20;;;;;;;20.33;43.43;100627.97;5051626;28;20029;-62
2023/03/19 11:24:02;;;;;;;0.20;0.20;;;;;;;20.27;44.53;100629.66;5051483;28;20030;-64
2023/03/19 11:26:28;;;;;;;0.20;0.20;;;;;;;20.75;43.81;100630.78;5051815;28;20068;-62
2023/03/19 11:29:03;;;;;;;0.20;0.20;;;;;;;20.85;44.96;100630.66;5053032;28;20108;-61
2023/03/19 11:32:01;;;;;;;0.20;0.20;;;;;;;20.91;45.93;100616.84;5052078;28;20456;-61
2023/03/19 11:34:32;;;;;;;0.20;0.20;;;;;;;19.91;48.33;100614.25;5024353;28;20029;-62
2023/03/19 11:37:17;;;;;;;0.20;0.20;;;;;;;19.98;48.51;100597.25;5051585;28;20029;-62
2023/03/19 11:39:55;;;;;;;0.20;0.20;;;;;;;20.09;49.29;100612.88;5052157;28;20048;-62